Tag Archives: инструктор

Первый вылет инструктором

Буквально на днях у меня был первый вылет инструктором, и мой первый студент на PPL (ну и первые 1 000 чистых летных часов в логбуке)

А накидайте сюда, что вам нравилось/не нравилось при полете с инструктором, или что вы от него ждете. Мне, например, не нравилось, что на выравнивании мой инструктор перехватывал штурвал буквально за мгновение до того, как я хотел предпринять какие-либо действия. То есть мне казалось, что он перестраховывался, и я мог бы и сам все сделать.

 

Инструкторский

Буквально пару недель назад погода в Праге переключилась в весенний режим, и у меня появилось “окно” для сдачи скилл-теста на инструктора. Это окно немного появлялось и раньше в виде отличной видимости и высоких облаков…

…но если приглядеться к “носку”, то можно заметить, что он “висит” параллельно земле. В тот день ветер был под 30 узлов с порывами до 44. В таких условиях не то, что акробатику не покрутишь, машину на шоссе сдувало.

Итак, настал час Х, когда и погода сошлась, и экзаменатор был свободен, и самолет был готов. На брифинге план по упражнения был такой: обычное приземление в стандартной конфигурации и без закрылков, экстренная посадка, вынужденная посадка, штопоры, форвард-слипы, ну и может быть что-то еще по настроению.

Так как нужно крутить штопоры, а это элемент акробатики, то самолет должен быть тоже акробатический. В моем случае это был Buldog SK-61.

Я о нем уже упоминал немного в посте про еще один перегон.

Как я уже писал, скилл-тест на инструктора проходит так, что сам экзаменатор сидит слева в качестве “студента”, а сам экзаменуемый сидит справа, как если бы выполнял функции инструктора. Плюс необходимо комментировать все свои действия, как если бы студент только-только сел в самолет, у него большие глаза и он вообще не понимает, что происходит.

Любое свое действие – потянулся я к тумблеру, нажал на тормоза, посмотрел по сторонам, дернул штурвалом – все нужно комментировать.

Приземление в стандартной посадочной конфигурации – тут никаких проблем, самая обычная посадка. Дальше мы поднялись на высоту 500 метров над полосой, экзаменатор перевел двигатель в idle-режим – имитация экстренного приземления. Тоже просто, самолет не кирпич, выдерживаешь скорость и летишь.

Штопоры. Набираем 5000 футов (примерно 1300 метров над аэродромом). Нужно выполнить сваливание, отсчитать два оборота и вывести самолет в нормальный режим. Ну как и во время обучения – двигатель на idle, скорость падает до 110 км/час, правую педаль до упора, через мгновение ручку полностью на себя – уехххууууууу, раз оборот, два оборот, ручку от себя, левую ногу вперед, выравнивание, понемного штурвал на себя и даем режим. Скорость в нижней точке 250-260 км/час, перегрузка 4g, потеря высоты около 100-150 метров на оборот + еще около 100 на выход  :) И так пару раз.

Потом был форвад-слип (скольжение на крыло). Используется, когда вдруг оказался высоко на полосой и нужно быстро потерять высоту. В основном применяется на маленьких самолетах, но и боинги тоже так могут (Планер Гимли). В этом случае одна из педалей до упора, штурвал в противоположное положение. Ничего сложного, но нужно помнить, что это упражнение выполняется всегда в посадочной конфигурации с полными закрылками. Но вот те, кто летает на цесснах, обычно это забывают, т.к. на них форвад-слип не рекомендуется (на некоторых моделях даже запрещено) делать с выпущенными закрылками.

Ну и вынужденное приземление – это когда ты подбираешь площадку (поле, дорога), делаешь облет и садишься.

Все, если все успешно прошло, через пару дней можно ехать в CAA и вписывать себе FI(A) рейтинг в лицензию.

Первые 100 часов мой FI будет Restricted – выпускать в соло студентов могу только с разрешения старшего инструктора, а так почти все то же самое. В общем, через несколько дней я уже стою в расписании в качестве инструктора на PPL :)

А да, авиашкола OKAir переехала в Прибрам, скоро напишу об этом.

Final, touch-n-go!

За последние три недели я сделал столько тач-н-гоу, сколько делал только во времена учебы на PPL.

Закрылки 30 – отлично! Теперь попробуем закрылки 40 – хорошо, немного снесло в строну, убираем обратно на 10, полный газ и взлет… ан-нет, инструктор убирает режим – отказ двигателя на взлете. Ну это легко, курс по полосе, закрылки 40, штурвал вниз и приземляемся.

А как насчет посадки без двигателя с высоты круга над полосой? Хех, это ж еще легче – скорость 80, разворот на вооброжаемый “даунвинд” и с него сразу “файнал” с закрылками 40.

Еще один круг, на этот раз посадка без закрылков. Ну это скорее всего на тот случай, если закрылки откажут. “Неа” – говорит инструктор, – “Это если студент забыл выпустить, а ты прошлепал”. И так еще хитро улыбается…

А вот если над полем двигатель откажет – да легко. Уже автоматически ставишь нужные закрылки в зависимости от высоты и выбранного места. И шею уже не выворачиваешь так сильно, когда нужно просканировать авиагоризонт и скорость, как то уже даже привык летать с правого кресла.

И так раз 100 уже, не меньше. Ну и в качестве фото – раннее утро, вид из кокпита

lkbu morning

Инструкторский. Первые часы

На прошлой неделе начал отлетывать свои первые часы на инструкторский рейтинг. До этого все никак не получалось – то самолет ждали, то погоды не было, то инструктор улетел на симулятор новый тайп рейтинг получать.

Сам курс достаточно простой, практически все то же самое, что и на PPL, но, как я об этом уже писал, все полеты проходят с правого кресла, как если бы ты летал инструктором с обычным студентом.

Ну и если раньше, при обучении на PPL, инструктор тебе все рассказывал, а ты спрашивал, то тут все наоборот. Ты не просто так без слов нажимаешь кнопки и дергаешь рычаги, а объясняешь, зачем это все делается.

Плюс в этот раз была интересная погода, периодически накрывало дождем, и вокруг были приличные темносерые кучовки.

METAR LKPR 171500Z 28008KT 9999 FEW025 21/16 Q1019 NOSIG
METAR LKPR 171430Z 30007KT 9999 FEW035 20/17 Q1019 NOSIG
SPECI LKPR 171419Z 30006KT 240V320 9999 FEW035 20/16 Q1019 RMK REG QNH 1015
METAR LKPR 171400Z 29007KT 9999 -SHRA SCT035 20/17 Q1020 NOSIG
METAR LKPR 171330Z 31013KT 9999 FEW025TCU SCT045 20/16 Q1020 NOSIG
SPECI LKPR 171305Z 31007KT 9999 -SHRA FEW020TCU SCT030 20/16 Q1020 RMK REG QNH 1015
METAR LKPR 171300Z 30008KT 9999 FEW020TCU SCT030 21/16 Q1020 TEMPO SHRA SCT020CB
METAR LKPR 171230Z 30005KT 260V330 9999 FEW020TCU SCT028 BKN040 20/16 Q1020 TEMPO SHRA SCT020CB
SPECI LKPR 171214Z 30007KT 9999 SCT025 BKN035 19/16 Q1020 RESHRA RMK REG QNH 1015
SPECI LKPR 171207Z 30006KT 270V330 6000 SHRA BKN028 20/15 Q1020 RMK REG QNH 1015
SPECI LKPR 171205Z 30006KT 270V330 9999 -SHRA BKN028 21/15 Q1020 RMK REG QNH 1015
METAR LKPR 171200Z 30007KT 270V340 9999 SCT025 BKN045 21/15 Q1020 NOSIG
METAR LKPR 171130Z 30009KT 9999 FEW025 BKN040 21/15 Q1020 NOSIG
METAR LKPR 171100Z 30008KT 9999 FEW020 SCT040 21/16 Q1020 NOSIG

TAF LKPR 171100Z 1712/1818 30008KT 9999 BKN025
 TEMPO 1712/1719 RA BKN013
 PROB30 TEMPO 1712/1716 4000 TSRA SCT026CB
 BECMG 1719/1721 SCT035
 PROB30 TEMPO 1812/1818 32012G24KT

Инструктор меня спросил, полечу я в такую погоду или нет. Вроде ничего серьезного, кучевки легко облетаются, минимумы соблюдены – почему бы и нет. Тогда он спросил по другому – а полечу ли я в такую погоду со студентом. Причем в нескольких вариантах: студент новичок, студент с опытом, студент в соло навигации. И вот тут уже пришлось задуматься.

Начинающему пилоту без опыта нет смысла лететь сквозь дождь и в сильную болтанку, т.к. у него еще нет уверенных навыков в обычных условиях. Такой полет не даст результатов, и просто будет потрачено дорогое летное время. И наоборот, если это студент с опытом, почти закончивший PPL, то имеет смысл с ним слетать и показать, что даже при условии соблюдения всех минимумов, полет может быть не очень комфортным.

Я помню, как в один из своих кросс-кантри полетов на PPL с инструктором видимость была около 5 км, и нижняя граница облаков была около 2500-3000 футов над землей. Инструктор мне тогда посоветовал остаться на земле, а я ему начал доказывать, что погода позволяет лететь. Инструктор поржал, и мы взлетели. На карте я потерялся уже минут через 15, пролетев мимо своей первой контрольной точки.

Ну и третий случай – студент-пилот в соло полете. Опять же, все зависит от опыта. Если это его первый вылет в соло на кросс-кантри, наверное стоит подождать лучшей погоды. Если же есть налет – почему бы и нет, он уже должен уметь принимать решения и расчитывать свои силы.

В общем, как-то так. Ну и фото паркинга в Водоходах, чтобы совсем скучно не было :)

OK-OKF

FI – вступительный чек

Итак, возобновляю классические посты для этого блога на тему “как же проходит обучение на пилота”. В данном случае буду писать о том, как получить FI (Flight Instructor) рейтинг.

Первое, что нужно знать – нельзя просто так стать летным инструктором. Минимальные требования – наличие CPL, а это подразумевает под собой сданную теорию CPL/ATPL и 200 часов налета. Второе – нужно сдать “предварительный” чек/экзамен. Буквально на днях я его как раз и сдал.

IMG_20160419_181706

Сам чек проходит с инструктором инструкторов, который смотрит на то, как ты управляешься с самолетом (взлет, посадка, повороты на 30/45 градусов, сваливание), как объясняешь теорию (что это за приборы, как подготовить самолет к полету, почему так и вот так), как справляешься с проблемами в полете (отказ двигателя, выбор площадки, скорость снижения). То есть что-то похожее на выпускной экзамен на PPL, но при этом ты сидишь справа. Честно говоря, сидеть в правом кресле на цессне – это совсем не то же самое, что сидеть справа на боинге. На большом самолете все приборы дублируются, там практически все равно где сидеть. На цессне С150/С172 все основные приборы находятся слева, поэтому постоянно приходится смотреть в сторону.

Тут происходит взрыв кишки расчлененка, т.к. привычка постоянно сканировать приборы и горизонт в данном случае не работает – взгляд переходит с горизонта на панель, а там вместо искусственного горизонта уровень топлива и температуры масла. Но ничего, впереди еще летать и летать, так что должен привыкнуть. Весь курс длится 30 часов, один час из них будет на акробатическом самолете с выполнением штопора.

Кстати, помните я писал, что в OKAir скоро появятся еще два самолета? Вот они…

Один из них будет OK-OKF, второй пока еще в процессе регистрации. Чистые, свежевыкрашенные и почти в строю (OKAir еще и сертифицированный авиацентр по Цесснам, так что все делают практически сами). Пару недель и вот тот слева с крыльями уже будет доступен в системе бронирования.